sensor_id;sensor_type;location;lat;lon;timestamp;temperature;humidity
65231;DHT22;51813;40.666;16.602;2023-04-15T00:01:23;16.80;48.30
65231;DHT22;51813;40.666;16.602;2023-04-15T00:03:50;16.80;48.40
65231;DHT22;51813;40.666;16.602;2023-04-15T00:06:20;16.80;48.40
65231;DHT22;51813;40.666;16.602;2023-04-15T00:08:46;16.80;48.30
65231;DHT22;51813;40.666;16.602;2023-04-15T00:11:12;16.80;48.30
65231;DHT22;51813;40.666;16.602;2023-04-15T00:13:38;16.80;48.30
65231;DHT22;51813;40.666;16.602;2023-04-15T00:16:05;16.80;48.30
65231;DHT22;51813;40.666;16.602;2023-04-15T00:18:33;16.80;48.20
65231;DHT22;51813;40.666;16.602;2023-04-15T00:20:58;16.80;48.20
65231;DHT22;51813;40.666;16.602;2023-04-15T00:23:24;16.80;48.30
65231;DHT22;51813;40.666;16.602;2023-04-15T00:25:50;16.80;48.30
65231;DHT22;51813;40.666;16.602;2023-04-15T00:28:16;16.80;48.20
65231;DHT22;51813;40.666;16.602;2023-04-15T00:30:42;16.80;48.20
65231;DHT22;51813;40.666;16.602;2023-04-15T00:33:09;16.80;48.10
65231;DHT22;51813;40.666;16.602;2023-04-15T00:35:35;16.80;48.20
65231;DHT22;51813;40.666;16.602;2023-04-15T00:38:05;16.80;48.10
65231;DHT22;51813;40.666;16.602;2023-04-15T00:40:31;16.80;48.10
65231;DHT22;51813;40.666;16.602;2023-04-15T00:42:57;16.80;48.30
65231;DHT22;51813;40.666;16.602;2023-04-15T00:45:24;16.70;48.20
65231;DHT22;51813;40.666;16.602;2023-04-15T00:47:50;16.70;48.20
65231;DHT22;51813;40.666;16.602;2023-04-15T00:50:15;16.70;48.30
65231;DHT22;51813;40.666;16.602;2023-04-15T00:52:41;16.70;48.20
65231;DHT22;51813;40.666;16.602;2023-04-15T00:55:07;16.70;48.30
65231;DHT22;51813;40.666;16.602;2023-04-15T00:57:34;16.70;48.40
65231;DHT22;51813;40.666;16.602;2023-04-15T01:00:00;16.70;48.50
65231;DHT22;51813;40.666;16.602;2023-04-15T01:02:26;16.70;48.20
65231;DHT22;51813;40.666;16.602;2023-04-15T01:04:51;16.70;48.40
65231;DHT22;51813;40.666;16.602;2023-04-15T01:07:17;16.70;48.50
65231;DHT22;51813;40.666;16.602;2023-04-15T01:09:43;16.70;48.50
65231;DHT22;51813;40.666;16.602;2023-04-15T01:12:11;16.70;48.40
65231;DHT22;51813;40.666;16.602;2023-04-15T01:14:38;16.70;48.40
65231;DHT22;51813;40.666;16.602;2023-04-15T01:17:04;16.70;48.30
65231;DHT22;51813;40.666;16.602;2023-04-15T01:19:30;16.70;48.40
65231;DHT22;51813;40.666;16.602;2023-04-15T01:21:56;16.70;48.40
65231;DHT22;51813;40.666;16.602;2023-04-15T01:24:22;16.70;48.40
65231;DHT22;51813;40.666;16.602;2023-04-15T01:26:48;16.70;48.50
65231;DHT22;51813;40.666;16.602;2023-04-15T01:29:15;16.70;48.50
65231;DHT22;51813;40.666;16.602;2023-04-15T01:31:51;16.70;48.60
65231;DHT22;51813;40.666;16.602;2023-04-15T01:34:17;16.70;48.50
65231;DHT22;51813;40.666;16.602;2023-04-15T01:36:43;16.70;48.70
65231;DHT22;51813;40.666;16.602;2023-04-15T01:39:09;16.70;48.70
65231;DHT22;51813;40.666;16.602;2023-04-15T01:41:34;16.70;48.70
65231;DHT22;51813;40.666;16.602;2023-04-15T01:44:00;16.70;48.80
65231;DHT22;51813;40.666;16.602;2023-04-15T01:46:26;16.70;48.70
65231;DHT22;51813;40.666;16.602;2023-04-15T01:48:52;16.60;48.80
65231;DHT22;51813;40.666;16.602;2023-04-15T01:51:18;16.70;48.80
65231;DHT22;51813;40.666;16.602;2023-04-15T01:53:43;16.70;48.80
65231;DHT22;51813;40.666;16.602;2023-04-15T01:56:09;16.60;48.80
65231;DHT22;51813;40.666;16.602;2023-04-15T01:58:35;16.60;48.80
65231;DHT22;51813;40.666;16.602;2023-04-15T02:01:01;16.70;48.90
65231;DHT22;51813;40.666;16.602;2023-04-15T02:03:28;16.60;48.80
65231;DHT22;51813;40.666;16.602;2023-04-15T02:05:54;16.60;48.90
65231;DHT22;51813;40.666;16.602;2023-04-15T02:08:19;16.60;48.90
65231;DHT22;51813;40.666;16.602;2023-04-15T02:10:45;16.60;48.90
65231;DHT22;51813;40.666;16.602;2023-04-15T02:13:11;16.60;49.00
65231;DHT22;51813;40.666;16.602;2023-04-15T02:15:36;16.60;48.90
65231;DHT22;51813;40.666;16.602;2023-04-15T02:18:03;16.60;49.00
65231;DHT22;51813;40.666;16.602;2023-04-15T02:20:29;16.60;49.20
65231;DHT22;51813;40.666;16.602;2023-04-15T02:22:57;16.60;49.10
65231;DHT22;51813;40.666;16.602;2023-04-15T02:25:23;16.60;49.10
65231;DHT22;51813;40.666;16.602;2023-04-15T02:27:48;16.60;49.90
65231;DHT22;51813;40.666;16.602;2023-04-15T02:30:14;16.60;49.00
65231;DHT22;51813;40.666;16.602;2023-04-15T02:32:40;16.60;49.20
65231;DHT22;51813;40.666;16.602;2023-04-15T02:35:09;16.60;49.10
65231;DHT22;51813;40.666;16.602;2023-04-15T02:37:36;16.60;49.20
65231;DHT22;51813;40.666;16.602;2023-04-15T02:40:07;16.60;49.10
65231;DHT22;51813;40.666;16.602;2023-04-15T02:42:33;16.60;49.10
65231;DHT22;51813;40.666;16.602;2023-04-15T02:44:58;16.60;49.80
65231;DHT22;51813;40.666;16.602;2023-04-15T02:47:24;16.60;49.00
65231;DHT22;51813;40.666;16.602;2023-04-15T02:49:50;16.60;49.10
65231;DHT22;51813;40.666;16.602;2023-04-15T02:52:15;16.60;49.10
65231;DHT22;51813;40.666;16.602;2023-04-15T02:54:41;16.60;49.10
65231;DHT22;51813;40.666;16.602;2023-04-15T02:57:06;16.60;49.10
65231;DHT22;51813;40.666;16.602;2023-04-15T02:59:32;16.60;49.10
65231;DHT22;51813;40.666;16.602;2023-04-15T03:01:58;16.60;49.10
65231;DHT22;51813;40.666;16.602;2023-04-15T03:04:25;16.60;49.10
65231;DHT22;51813;40.666;16.602;2023-04-15T03:06:51;16.60;49.10
65231;DHT22;51813;40.666;16.602;2023-04-15T03:09:17;16.60;49.20
65231;DHT22;51813;40.666;16.602;2023-04-15T03:11:42;16.60;49.10
65231;DHT22;51813;40.666;16.602;2023-04-15T03:14:08;16.60;49.20
65231;DHT22;51813;40.666;16.602;2023-04-15T03:16:34;16.60;49.10
65231;DHT22;51813;40.666;16.602;2023-04-15T03:19:00;16.60;49.20
65231;DHT22;51813;40.666;16.602;2023-04-15T03:21:25;16.60;49.20
65231;DHT22;51813;40.666;16.602;2023-04-15T03:23:52;16.60;49.10
65231;DHT22;51813;40.666;16.602;2023-04-15T03:26:29;16.60;49.30
65231;DHT22;51813;40.666;16.602;2023-04-15T03:28:55;16.60;49.30
65231;DHT22;51813;40.666;16.602;2023-04-15T03:31:21;16.60;49.30
65231;DHT22;51813;40.666;16.602;2023-04-15T03:33:47;16.60;49.20
65231;DHT22;51813;40.666;16.602;2023-04-15T03:36:13;16.60;49.30
65231;DHT22;51813;40.666;16.602;2023-04-15T03:38:38;16.60;49.30
65231;DHT22;51813;40.666;16.602;2023-04-15T03:41:04;16.60;49.30
65231;DHT22;51813;40.666;16.602;2023-04-15T03:43:30;16.60;49.30
65231;DHT22;51813;40.666;16.602;2023-04-15T03:45:56;16.60;49.40
65231;DHT22;51813;40.666;16.602;2023-04-15T03:48:22;16.60;49.40
65231;DHT22;51813;40.666;16.602;2023-04-15T03:50:47;16.60;49.40
65231;DHT22;51813;40.666;16.602;2023-04-15T03:53:14;16.60;49.30
65231;DHT22;51813;40.666;16.602;2023-04-15T03:55:40;16.60;49.30
65231;DHT22;51813;40.666;16.602;2023-04-15T03:58:05;16.60;49.40
65231;DHT22;51813;40.666;16.602;2023-04-15T04:00:31;16.60;49.30
65231;DHT22;51813;40.666;16.602;2023-04-15T04:02:57;16.60;49.30
65231;DHT22;51813;40.666;16.602;2023-04-15T04:05:22;16.60;49.40
65231;DHT22;51813;40.666;16.602;2023-04-15T04:07:48;16.60;49.60
65231;DHT22;51813;40.666;16.602;2023-04-15T04:10:14;16.60;49.60
65231;DHT22;51813;40.666;16.602;2023-04-15T04:12:40;16.60;49.60
65231;DHT22;51813;40.666;16.602;2023-04-15T04:15:06;16.60;49.40
65231;DHT22;51813;40.666;16.602;2023-04-15T04:17:32;16.60;49.50
65231;DHT22;51813;40.666;16.602;2023-04-15T04:19:58;16.60;49.60
65231;DHT22;51813;40.666;16.602;2023-04-15T04:22:24;16.60;49.40
65231;DHT22;51813;40.666;16.602;2023-04-15T04:24:50;16.60;49.60
65231;DHT22;51813;40.666;16.602;2023-04-15T04:27:16;16.60;49.40
65231;DHT22;51813;40.666;16.602;2023-04-15T04:29:42;16.60;49.50
65231;DHT22;51813;40.666;16.602;2023-04-15T04:32:07;16.60;49.60
65231;DHT22;51813;40.666;16.602;2023-04-15T04:34:33;16.60;49.50
65231;DHT22;51813;40.666;16.602;2023-04-15T04:36:58;16.60;49.50
65231;DHT22;51813;40.666;16.602;2023-04-15T04:39:24;16.60;49.40
65231;DHT22;51813;40.666;16.602;2023-04-15T04:41:50;16.60;49.40
65231;DHT22;51813;40.666;16.602;2023-04-15T04:44:18;16.60;49.60
65231;DHT22;51813;40.666;16.602;2023-04-15T04:46:44;16.60;49.50
65231;DHT22;51813;40.666;16.602;2023-04-15T04:49:10;16.60;49.40
65231;DHT22;51813;40.666;16.602;2023-04-15T04:51:35;16.60;49.30
65231;DHT22;51813;40.666;16.602;2023-04-15T04:54:01;16.60;49.40
65231;DHT22;51813;40.666;16.602;2023-04-15T04:56:27;16.60;49.40
65231;DHT22;51813;40.666;16.602;2023-04-15T04:58:53;16.60;49.60
65231;DHT22;51813;40.666;16.602;2023-04-15T05:01:18;16.60;49.50
65231;DHT22;51813;40.666;16.602;2023-04-15T05:03:44;16.60;49.50
65231;DHT22;51813;40.666;16.602;2023-04-15T05:06:10;16.60;49.50
65231;DHT22;51813;40.666;16.602;2023-04-15T05:08:35;16.60;49.50
65231;DHT22;51813;40.666;16.602;2023-04-15T05:11:02;16.60;49.50
65231;DHT22;51813;40.666;16.602;2023-04-15T05:13:28;16.60;49.50
65231;DHT22;51813;40.666;16.602;2023-04-15T05:15:54;16.60;49.50
65231;DHT22;51813;40.666;16.602;2023-04-15T05:18:20;16.60;49.60
65231;DHT22;51813;40.666;16.602;2023-04-15T05:20:46;16.60;49.40
65231;DHT22;51813;40.666;16.602;2023-04-15T05:23:11;16.60;49.50
65231;DHT22;51813;40.666;16.602;2023-04-15T05:25:38;16.60;49.60
65231;DHT22;51813;40.666;16.602;2023-04-15T05:28:03;16.60;49.50
65231;DHT22;51813;40.666;16.602;2023-04-15T05:30:29;16.60;49.50
65231;DHT22;51813;40.666;16.602;2023-04-15T05:32:55;16.50;49.40
65231;DHT22;51813;40.666;16.602;2023-04-15T05:35:21;16.60;49.40
65231;DHT22;51813;40.666;16.602;2023-04-15T05:37:47;16.60;49.40
65231;DHT22;51813;40.666;16.602;2023-04-15T05:40:13;16.60;49.40
65231;DHT22;51813;40.666;16.602;2023-04-15T05:42:39;16.50;49.40
65231;DHT22;51813;40.666;16.602;2023-04-15T05:45:06;16.50;49.40
65231;DHT22;51813;40.666;16.602;2023-04-15T05:47:34;16.50;49.30
65231;DHT22;51813;40.666;16.602;2023-04-15T05:50:00;16.50;49.30
65231;DHT22;51813;40.666;16.602;2023-04-15T05:52:26;16.50;49.40
65231;DHT22;51813;40.666;16.602;2023-04-15T05:54:52;16.50;49.40
65231;DHT22;51813;40.666;16.602;2023-04-15T05:57:17;16.50;49.50
65231;DHT22;51813;40.666;16.602;2023-04-15T05:59:43;16.60;49.60
65231;DHT22;51813;40.666;16.602;2023-04-15T06:02:09;16.60;49.50
65231;DHT22;51813;40.666;16.602;2023-04-15T06:04:35;16.60;49.50
65231;DHT22;51813;40.666;16.602;2023-04-15T06:07:01;16.50;49.50
65231;DHT22;51813;40.666;16.602;2023-04-15T06:09:27;16.60;49.50
65231;DHT22;51813;40.666;16.602;2023-04-15T06:11:53;16.50;49.30
65231;DHT22;51813;40.666;16.602;2023-04-15T06:14:19;16.50;49.40
65231;DHT22;51813;40.666;16.602;2023-04-15T06:16:45;16.60;49.60
65231;DHT22;51813;40.666;16.602;2023-04-15T06:19:11;16.60;49.40
65231;DHT22;51813;40.666;16.602;2023-04-15T06:21:37;16.60;49.50
65231;DHT22;51813;40.666;16.602;2023-04-15T06:24:02;16.60;49.60
65231;DHT22;51813;40.666;16.602;2023-04-15T06:26:28;16.60;49.60
65231;DHT22;51813;40.666;16.602;2023-04-15T06:28:54;16.60;49.50
65231;DHT22;51813;40.666;16.602;2023-04-15T06:31:20;16.60;49.60
65231;DHT22;51813;40.666;16.602;2023-04-15T06:33:45;16.60;49.60
65231;DHT22;51813;40.666;16.602;2023-04-15T06:36:11;16.60;49.60
65231;DHT22;51813;40.666;16.602;2023-04-15T06:38:37;16.60;49.60
65231;DHT22;51813;40.666;16.602;2023-04-15T06:41:03;16.60;49.50
65231;DHT22;51813;40.666;16.602;2023-04-15T06:43:29;16.60;49.50
65231;DHT22;51813;40.666;16.602;2023-04-15T06:45:55;16.60;49.40
65231;DHT22;51813;40.666;16.602;2023-04-15T06:48:21;16.60;49.50
65231;DHT22;51813;40.666;16.602;2023-04-15T06:50:48;16.60;49.60
65231;DHT22;51813;40.666;16.602;2023-04-15T06:53:14;16.60;49.60
65231;DHT22;51813;40.666;16.602;2023-04-15T06:55:40;16.60;49.60
65231;DHT22;51813;40.666;16.602;2023-04-15T06:58:06;16.60;49.70
65231;DHT22;51813;40.666;16.602;2023-04-15T07:00:32;16.60;49.60
65231;DHT22;51813;40.666;16.602;2023-04-15T07:02:59;16.60;49.60
65231;DHT22;51813;40.666;16.602;2023-04-15T07:05:28;16.50;50.00
65231;DHT22;51813;40.666;16.602;2023-04-15T07:07:54;16.60;50.10
65231;DHT22;51813;40.666;16.602;2023-04-15T07:10:20;16.70;50.10
65231;DHT22;51813;40.666;16.602;2023-04-15T07:12:47;16.70;50.30
65231;DHT22;51813;40.666;16.602;2023-04-15T07:15:13;16.80;50.40
65231;DHT22;51813;40.666;16.602;2023-04-15T07:17:40;16.80;50.20
65231;DHT22;51813;40.666;16.602;2023-04-15T07:20:06;16.90;50.00
65231;DHT22;51813;40.666;16.602;2023-04-15T07:22:32;16.90;50.00
65231;DHT22;51813;40.666;16.602;2023-04-15T07:24:58;16.90;50.00
65231;DHT22;51813;40.666;16.602;2023-04-15T07:27:24;17.00;50.20
65231;DHT22;51813;40.666;16.602;2023-04-15T07:29:50;17.00;49.90
65231;DHT22;51813;40.666;16.602;2023-04-15T07:32:16;17.00;49.90
65231;DHT22;51813;40.666;16.602;2023-04-15T07:34:42;17.00;49.90
65231;DHT22;51813;40.666;16.602;2023-04-15T07:37:08;17.10;50.10
65231;DHT22;51813;40.666;16.602;2023-04-15T07:39:34;17.10;50.00
65231;DHT22;51813;40.666;16.602;2023-04-15T07:42:00;17.20;50.30
65231;DHT22;51813;40.666;16.602;2023-04-15T07:44:26;17.20;50.30
65231;DHT22;51813;40.666;16.602;2023-04-15T07:46:52;17.20;50.20
65231;DHT22;51813;40.666;16.602;2023-04-15T07:49:18;17.20;50.00
65231;DHT22;51813;40.666;16.602;2023-04-15T07:51:45;17.20;49.90
65231;DHT22;51813;40.666;16.602;2023-04-15T07:54:11;17.20;50.10
65231;DHT22;51813;40.666;16.602;2023-04-15T07:56:37;17.20;50.30
65231;DHT22;51813;40.666;16.602;2023-04-15T07:59:02;17.20;49.90
65231;DHT22;51813;40.666;16.602;2023-04-15T08:01:30;17.30;49.90
65231;DHT22;51813;40.666;16.602;2023-04-15T08:04:00;17.40;49.70
65231;DHT22;51813;40.666;16.602;2023-04-15T08:06:26;17.50;49.10
65231;DHT22;51813;40.666;16.602;2023-04-15T08:08:52;17.70;48.70
65231;DHT22;51813;40.666;16.602;2023-04-15T08:11:19;17.90;48.20
65231;DHT22;51813;40.666;16.602;2023-04-15T08:13:45;18.10;47.80
65231;DHT22;51813;40.666;16.602;2023-04-15T08:16:19;18.30;47.40
65231;DHT22;51813;40.666;16.602;2023-04-15T08:18:50;18.50;47.00
65231;DHT22;51813;40.666;16.602;2023-04-15T08:21:17;18.60;46.80
65231;DHT22;51813;40.666;16.602;2023-04-15T08:23:44;18.60;46.80
65231;DHT22;51813;40.666;16.602;2023-04-15T08:26:10;18.80;46.60
65231;DHT22;51813;40.666;16.602;2023-04-15T08:28:40;18.90;46.50
65231;DHT22;51813;40.666;16.602;2023-04-15T08:31:07;19.00;46.30
65231;DHT22;51813;40.666;16.602;2023-04-15T08:33:33;19.10;46.10
65231;DHT22;51813;40.666;16.602;2023-04-15T08:35:59;19.30;46.00
65231;DHT22;51813;40.666;16.602;2023-04-15T08:38:25;19.30;45.80
65231;DHT22;51813;40.666;16.602;2023-04-15T08:40:50;19.20;45.60
65231;DHT22;51813;40.666;16.602;2023-04-15T08:43:21;19.40;45.90
65231;DHT22;51813;40.666;16.602;2023-04-15T08:45:51;19.40;45.60
65231;DHT22;51813;40.666;16.602;2023-04-15T08:48:18;19.50;45.40
65231;DHT22;51813;40.666;16.602;2023-04-15T08:50:45;19.60;45.30
65231;DHT22;51813;40.666;16.602;2023-04-15T08:53:11;19.60;45.50
65231;DHT22;51813;40.666;16.602;2023-04-15T08:55:45;19.70;45.40
65231;DHT22;51813;40.666;16.602;2023-04-15T08:58:12;19.70;45.30
65231;DHT22;51813;40.666;16.602;2023-04-15T09:00:39;19.70;45.40
65231;DHT22;51813;40.666;16.602;2023-04-15T09:03:05;19.70;45.30
65231;DHT22;51813;40.666;16.602;2023-04-15T09:05:32;19.80;45.10
65231;DHT22;51813;40.666;16.602;2023-04-15T09:07:58;19.90;45.10
65231;DHT22;51813;40.666;16.602;2023-04-15T09:10:24;19.90;45.10
65231;DHT22;51813;40.666;16.602;2023-04-15T09:12:49;19.90;44.90
65231;DHT22;51813;40.666;16.602;2023-04-15T09:15:16;20.00;44.90
65231;DHT22;51813;40.666;16.602;2023-04-15T09:17:45;19.90;45.10
65231;DHT22;51813;40.666;16.602;2023-04-15T09:20:11;20.00;45.20
65231;DHT22;51813;40.666;16.602;2023-04-15T09:22:42;20.00;44.80
65231;DHT22;51813;40.666;16.602;2023-04-15T09:27:58;20.10;45.30
65231;DHT22;51813;40.666;16.602;2023-04-15T09:30:25;20.00;45.20
65231;DHT22;51813;40.666;16.602;2023-04-15T09:32:53;20.00;45.50
65231;DHT22;51813;40.666;16.602;2023-04-15T09:35:20;20.10;45.00
65231;DHT22;51813;40.666;16.602;2023-04-15T09:37:47;19.90;45.40
65231;DHT22;51813;40.666;16.602;2023-04-15T09:40:13;20.00;46.10
65231;DHT22;51813;40.666;16.602;2023-04-15T09:42:55;20.10;45.70
65231;DHT22;51813;40.666;16.602;2023-04-15T09:45:22;20.10;45.30
65231;DHT22;51813;40.666;16.602;2023-04-15T09:47:48;20.00;45.70
65231;DHT22;51813;40.666;16.602;2023-04-15T09:50:16;20.10;45.00
65231;DHT22;51813;40.666;16.602;2023-04-15T09:52:42;20.10;45.30
65231;DHT22;51813;40.666;16.602;2023-04-15T09:55:09;20.10;45.60
65231;DHT22;51813;40.666;16.602;2023-04-15T09:57:36;20.10;45.20
65231;DHT22;51813;40.666;16.602;2023-04-15T10:00:06;20.10;45.00
65231;DHT22;51813;40.666;16.602;2023-04-15T10:02:36;20.00;44.70
65231;DHT22;51813;40.666;16.602;2023-04-15T10:05:05;19.90;44.60
65231;DHT22;51813;40.666;16.602;2023-04-15T10:07:31;19.80;44.70
65231;DHT22;51813;40.666;16.602;2023-04-15T10:09:59;19.70;44.60
65231;DHT22;51813;40.666;16.602;2023-04-15T10:12:25;19.60;45.20
65231;DHT22;51813;40.666;16.602;2023-04-15T10:14:55;19.50;45.00
65231;DHT22;51813;40.666;16.602;2023-04-15T10:17:26;19.40;45.00
65231;DHT22;51813;40.666;16.602;2023-04-15T10:19:54;19.40;45.50
65231;DHT22;51813;40.666;16.602;2023-04-15T10:22:21;19.40;45.10
65231;DHT22;51813;40.666;16.602;2023-04-15T10:24:48;19.30;45.40
65231;DHT22;51813;40.666;16.602;2023-04-15T10:27:16;19.20;45.40
65231;DHT22;51813;40.666;16.602;2023-04-15T10:29:42;19.10;45.70
65231;DHT22;51813;40.666;16.602;2023-04-15T10:32:08;19.00;46.10
65231;DHT22;51813;40.666;16.602;2023-04-15T10:34:35;19.00;46.40
65231;DHT22;51813;40.666;16.602;2023-04-15T10:37:01;19.00;46.60
65231;DHT22;51813;40.666;16.602;2023-04-15T10:39:38;18.90;46.50
65231;DHT22;51813;40.666;16.602;2023-04-15T10:44:34;18.80;46.70
65231;DHT22;51813;40.666;16.602;2023-04-15T10:47:08;18.80;46.80
65231;DHT22;51813;40.666;16.602;2023-04-15T10:49:42;18.70;46.90
65231;DHT22;51813;40.666;16.602;2023-04-15T10:52:09;18.60;47.00
65231;DHT22;51813;40.666;16.602;2023-04-15T10:54:35;18.60;47.10
65231;DHT22;51813;40.666;16.602;2023-04-15T10:59:36;18.50;47.60
65231;DHT22;51813;40.666;16.602;2023-04-15T11:02:05;18.50;48.10
65231;DHT22;51813;40.666;16.602;2023-04-15T11:04:53;18.50;48.40
65231;DHT22;51813;40.666;16.602;2023-04-15T11:10:00;18.40;48.70
65231;DHT22;51813;40.666;16.602;2023-04-15T11:12:36;18.40;48.80
65231;DHT22;51813;40.666;16.602;2023-04-15T11:17:50;18.30;49.10
65231;DHT22;51813;40.666;16.602;2023-04-15T11:20:16;18.30;49.20
65231;DHT22;51813;40.666;16.602;2023-04-15T11:22:52;18.30;49.30
65231;DHT22;51813;40.666;16.602;2023-04-15T11:25:26;18.30;49.40
65231;DHT22;51813;40.666;16.602;2023-04-15T11:27:52;18.30;49.30
65231;DHT22;51813;40.666;16.602;2023-04-15T11:30:21;18.30;49.60
65231;DHT22;51813;40.666;16.602;2023-04-15T11:32:51;18.30;49.60
65231;DHT22;51813;40.666;16.602;2023-04-15T11:35:17;18.30;49.70
65231;DHT22;51813;40.666;16.602;2023-04-15T11:37:44;18.40;49.50
65231;DHT22;51813;40.666;16.602;2023-04-15T11:40:10;18.60;49.40
65231;DHT22;51813;40.666;16.602;2023-04-15T11:42:36;18.70;49.10
65231;DHT22;51813;40.666;16.602;2023-04-15T11:45:09;18.90;48.70
65231;DHT22;51813;40.666;16.602;2023-04-15T11:47:36;19.00;48.70
65231;DHT22;51813;40.666;16.602;2023-04-15T11:50:22;19.20;48.40
65231;DHT22;51813;40.666;16.602;2023-04-15T11:52:55;19.40;48.30
65231;DHT22;51813;40.666;16.602;2023-04-15T11:55:22;19.40;47.60
65231;DHT22;51813;40.666;16.602;2023-04-15T11:57:52;19.60;47.70
65231;DHT22;51813;40.666;16.602;2023-04-15T12:00:30;19.60;47.10
65231;DHT22;51813;40.666;16.602;2023-04-15T12:03:56;19.80;47.50
65231;DHT22;51813;40.666;16.602;2023-04-15T12:11:50;20.00;46.70
65231;DHT22;51813;40.666;16.602;2023-04-15T12:14:27;20.10;46.90
65231;DHT22;51813;40.666;16.602;2023-04-15T12:16:58;20.10;46.50
65231;DHT22;51813;40.666;16.602;2023-04-15T12:19:38;20.20;46.50
65231;DHT22;51813;40.666;16.602;2023-04-15T12:22:15;20.20;46.40
65231;DHT22;51813;40.666;16.602;2023-04-15T12:24:42;20.20;46.60
65231;DHT22;51813;40.666;16.602;2023-04-15T12:27:13;20.30;46.30
65231;DHT22;51813;40.666;16.602;2023-04-15T12:29:40;20.40;46.20
65231;DHT22;51813;40.666;16.602;2023-04-15T12:32:13;20.40;47.20
65231;DHT22;51813;40.666;16.602;2023-04-15T12:34:41;20.40;46.20
65231;DHT22;51813;40.666;16.602;2023-04-15T12:37:09;20.40;46.40
65231;DHT22;51813;40.666;16.602;2023-04-15T12:39:40;20.50;46.40
65231;DHT22;51813;40.666;16.602;2023-04-15T12:42:06;20.50;46.10
65231;DHT22;51813;40.666;16.602;2023-04-15T12:44:32;20.40;46.30
65231;DHT22;51813;40.666;16.602;2023-04-15T12:46:58;20.40;46.10
65231;DHT22;51813;40.666;16.602;2023-04-15T12:49:25;20.50;46.20
65231;DHT22;51813;40.666;16.602;2023-04-15T12:51:53;20.50;46.40
65231;DHT22;51813;40.666;16.602;2023-04-15T12:54:19;20.60;46.10
65231;DHT22;51813;40.666;16.602;2023-04-15T12:56:45;20.60;46.10
65231;DHT22;51813;40.666;16.602;2023-04-15T12:59:12;20.70;46.10
65231;DHT22;51813;40.666;16.602;2023-04-15T13:01:38;20.80;45.90
65231;DHT22;51813;40.666;16.602;2023-04-15T13:04:05;20.70;45.70
65231;DHT22;51813;40.666;16.602;2023-04-15T13:06:31;20.70;46.10
65231;DHT22;51813;40.666;16.602;2023-04-15T13:08:59;20.70;46.20
65231;DHT22;51813;40.666;16.602;2023-04-15T13:11:27;20.80;45.60
65231;DHT22;51813;40.666;16.602;2023-04-15T13:14:02;20.80;46.00
65231;DHT22;51813;40.666;16.602;2023-04-15T13:16:28;20.90;46.00
65231;DHT22;51813;40.666;16.602;2023-04-15T13:18:55;20.80;45.90
65231;DHT22;51813;40.666;16.602;2023-04-15T13:21:20;20.80;45.60
65231;DHT22;51813;40.666;16.602;2023-04-15T13:23:48;20.80;45.70
65231;DHT22;51813;40.666;16.602;2023-04-15T13:26:14;20.70;46.10
65231;DHT22;51813;40.666;16.602;2023-04-15T13:28:40;20.80;46.00
65231;DHT22;51813;40.666;16.602;2023-04-15T13:31:06;20.90;45.90
65231;DHT22;51813;40.666;16.602;2023-04-15T13:33:32;20.90;45.90
65231;DHT22;51813;40.666;16.602;2023-04-15T13:35:57;20.80;46.00
65231;DHT22;51813;40.666;16.602;2023-04-15T13:38:24;20.90;45.70
65231;DHT22;51813;40.666;16.602;2023-04-15T13:40:50;20.80;46.30
65231;DHT22;51813;40.666;16.602;2023-04-15T13:43:16;20.80;46.00
65231;DHT22;51813;40.666;16.602;2023-04-15T13:45:42;20.90;46.10
65231;DHT22;51813;40.666;16.602;2023-04-15T13:48:08;21.00;46.00
65231;DHT22;51813;40.666;16.602;2023-04-15T13:50:34;20.90;45.70
65231;DHT22;51813;40.666;16.602;2023-04-15T13:53:00;21.00;45.70
65231;DHT22;51813;40.666;16.602;2023-04-15T13:55:25;21.00;45.90
65231;DHT22;51813;40.666;16.602;2023-04-15T13:57:51;21.00;46.10
65231;DHT22;51813;40.666;16.602;2023-04-15T14:00:17;21.00;46.10
65231;DHT22;51813;40.666;16.602;2023-04-15T14:02:43;21.00;46.30
65231;DHT22;51813;40.666;16.602;2023-04-15T14:05:09;20.90;46.90
65231;DHT22;51813;40.666;16.602;2023-04-15T14:07:35;21.00;46.90
65231;DHT22;51813;40.666;16.602;2023-04-15T14:10:01;20.90;47.10
65231;DHT22;51813;40.666;16.602;2023-04-15T14:12:26;20.90;46.90
65231;DHT22;51813;40.666;16.602;2023-04-15T14:14:52;20.80;46.80
65231;DHT22;51813;40.666;16.602;2023-04-15T14:17:18;20.60;47.60
65231;DHT22;51813;40.666;16.602;2023-04-15T14:19:44;20.70;47.40
65231;DHT22;51813;40.666;16.602;2023-04-15T14:22:10;20.50;47.80
65231;DHT22;51813;40.666;16.602;2023-04-15T14:24:35;20.50;48.00
65231;DHT22;51813;40.666;16.602;2023-04-15T14:27:02;20.60;48.00
65231;DHT22;51813;40.666;16.602;2023-04-15T14:29:27;20.50;47.90
65231;DHT22;51813;40.666;16.602;2023-04-15T14:31:53;20.50;47.80
65231;DHT22;51813;40.666;16.602;2023-04-15T14:34:21;20.50;48.30
65231;DHT22;51813;40.666;16.602;2023-04-15T14:36:50;20.40;48.30
65231;DHT22;51813;40.666;16.602;2023-04-15T14:39:15;20.30;48.80
65231;DHT22;51813;40.666;16.602;2023-04-15T14:41:41;20.30;48.50
65231;DHT22;51813;40.666;16.602;2023-04-15T14:44:07;20.30;48.80
65231;DHT22;51813;40.666;16.602;2023-04-15T14:46:34;20.30;48.80
65231;DHT22;51813;40.666;16.602;2023-04-15T14:49:00;20.30;48.50
65231;DHT22;51813;40.666;16.602;2023-04-15T14:51:25;20.20;48.50
65231;DHT22;51813;40.666;16.602;2023-04-15T14:53:51;20.20;48.90
65231;DHT22;51813;40.666;16.602;2023-04-15T14:56:17;20.10;48.90
65231;DHT22;51813;40.666;16.602;2023-04-15T14:58:43;20.10;49.00
65231;DHT22;51813;40.666;16.602;2023-04-15T15:01:09;20.00;49.10
65231;DHT22;51813;40.666;16.602;2023-04-15T15:03:34;20.00;49.30
65231;DHT22;51813;40.666;16.602;2023-04-15T15:06:00;20.00;49.40
65231;DHT22;51813;40.666;16.602;2023-04-15T15:08:26;20.00;49.50
65231;DHT22;51813;40.666;16.602;2023-04-15T15:10:52;19.90;49.90
65231;DHT22;51813;40.666;16.602;2023-04-15T15:13:18;19.90;50.10
65231;DHT22;51813;40.666;16.602;2023-04-15T15:15:44;19.90;50.40
65231;DHT22;51813;40.666;16.602;2023-04-15T15:18:10;19.90;50.80
65231;DHT22;51813;40.666;16.602;2023-04-15T15:20:36;19.80;51.20
65231;DHT22;51813;40.666;16.602;2023-04-15T15:23:01;19.80;51.40
65231;DHT22;51813;40.666;16.602;2023-04-15T15:25:27;19.70;51.80
65231;DHT22;51813;40.666;16.602;2023-04-15T15:27:53;19.70;52.20
65231;DHT22;51813;40.666;16.602;2023-04-15T15:30:19;19.70;52.40
65231;DHT22;51813;40.666;16.602;2023-04-15T15:32:45;19.70;52.70